PWSweather.com
Personal Weather Stations
Station Observations
133525
French Quarters West Seneca , West Seneca, NY 14224

French Quarters West Seneca West Seneca, NY 14224

Lat: 42.850058, Lon: -78.799754

Elevation: 603

Station Type: Davis Vantage Vue pro2

http://westsenecaweather.com/

High Low Average
Temperature 49.4°F9.7°C 30.8°F-0.7°C 44.1°F6.7°C
Dew Point 46.8°F8.2°C 26.9°F-2.8°C 39.6°F4.2°C
Winds 12.7 mph 20.4 kmh Calm Calm 3.0 mph WSW4.8 kmh WSW
Wind Gusts 19.6 mph31.5 kmh -- 5.0 mph8.0 kmh
Humidity 97% 45% 85%
Pressure 29.88 in1011.9 mb 29.04 in983.4 mb -
Precipitation 0.44 in11.2 mm - -
Hour Temp Dew Point Humidity Winds Wind Gusts Pressure Precip Precip Rate Daily Precip Total
12:00 AM 31.0°F-0.6°C 27.9°F-2.3°C 88% Calm Calm -- 29.88 in1011.9 mb - 0.00 in0.0 mm 0.00 in0.0 mm
12:10 AM 31.7°F-0.2°C 28.6°F-1.9°C 88% Calm Calm -- 29.87 in1011.5 mb - 0.00 in0.0 mm 0.00 in0.0 mm
12:20 AM 32.2°F0.1°C 28.7°F-1.8°C 87% Calm Calm -- 29.86 in1011.2 mb - 0.00 in0.0 mm 0.00 in0.0 mm
12:30 AM 32.3°F0.2°C 28.3°F-2.1°C 85% Calm Calm 1.2 mph1.9 kmh 29.84 in1010.5 mb - 0.00 in0.0 mm 0.00 in0.0 mm
12:40 AM 32.3°F0.2°C 28.3°F-2.1°C 85% Calm Calm 1.2 mph1.9 kmh 29.84 in1010.5 mb - 0.00 in0.0 mm 0.00 in0.0 mm
12:50 AM 32.2°F0.1°C 28.2°F-2.1°C 85% Calm Calm 1.2 mph1.9 kmh 29.84 in1010.5 mb - 0.00 in0.0 mm 0.00 in0.0 mm
01:00 AM 32.0°F0.0°C 28.0°F-2.2°C 85% Calm Calm -- 29.83 in1010.2 mb - 0.00 in0.0 mm 0.00 in0.0 mm
01:10 AM 31.7°F-0.2°C 27.7°F-2.4°C 85% Calm Calm -- 29.81 in1009.5 mb - 0.00 in0.0 mm 0.00 in0.0 mm
01:20 AM 31.3°F-0.4°C 27.6°F-2.4°C 86% Calm Calm -- 29.80 in1009.1 mb - 0.00 in0.0 mm 0.00 in0.0 mm
01:30 AM 31.0°F-0.6°C 27.6°F-2.4°C 87% Calm Calm -- 29.80 in1009.1 mb - 0.00 in0.0 mm 0.00 in0.0 mm
01:40 AM 30.8°F-0.7°C 27.4°F-2.6°C 87% Calm Calm -- 29.79 in1008.8 mb - 0.00 in0.0 mm 0.00 in0.0 mm
01:50 AM 31.0°F-0.6°C 27.6°F-2.4°C 87% Calm Calm -- 29.78 in1008.5 mb - 0.00 in0.0 mm 0.00 in0.0 mm
02:00 AM 31.0°F-0.6°C 27.6°F-2.4°C 87% Calm Calm -- 29.78 in1008.5 mb - 0.00 in0.0 mm 0.00 in0.0 mm
02:10 AM 31.0°F-0.6°C 27.6°F-2.4°C 87% Calm Calm -- 29.77 in1008.1 mb - 0.00 in0.0 mm 0.00 in0.0 mm
02:20 AM 31.2°F-0.4°C 28.0°F-2.2°C 88% Calm Calm -- 29.77 in1008.1 mb - 0.00 in0.0 mm 0.00 in0.0 mm
02:30 AM 31.4°F-0.3°C 28.2°F-2.1°C 88% Calm Calm -- 29.77 in1008.1 mb - 0.00 in0.0 mm 0.00 in0.0 mm
02:40 AM 31.5°F-0.3°C 28.4°F-2.0°C 88% Calm Calm -- 29.76 in1007.8 mb - 0.00 in0.0 mm 0.00 in0.0 mm
02:50 AM 31.6°F-0.2°C 28.5°F-1.9°C 88% Calm Calm -- 29.76 in1007.8 mb - 0.00 in0.0 mm 0.00 in0.0 mm
03:00 AM 31.8°F-0.1°C 28.7°F-1.8°C 88% Calm Calm -- 29.76 in1007.8 mb - 0.00 in0.0 mm 0.00 in0.0 mm
03:10 AM 32.3°F0.2°C 29.1°F-1.6°C 88% Calm Calm -- 29.74 in1007.1 mb - 0.00 in0.0 mm 0.00 in0.0 mm
03:20 AM 32.9°F0.5°C 29.2°F-1.6°C 86% Calm Calm -- 29.73 in1006.8 mb - 0.00 in0.0 mm 0.00 in0.0 mm
03:30 AM 33.3°F0.7°C 29.3°F-1.5°C 85% Calm Calm -- 29.72 in1006.4 mb - 0.00 in0.0 mm 0.00 in0.0 mm
03:40 AM 33.6°F0.9°C 29.3°F-1.5°C 84% Calm Calm -- 29.72 in1006.4 mb - 0.00 in0.0 mm 0.00 in0.0 mm
03:50 AM 33.8°F1.0°C 29.8°F-1.2°C 85% Calm Calm -- 29.70 in1005.8 mb - 0.00 in0.0 mm 0.00 in0.0 mm
04:00 AM 33.9°F1.1°C 29.6°F-1.3°C 84% Calm Calm -- 29.70 in1005.8 mb - 0.00 in0.0 mm 0.00 in0.0 mm
04:10 AM 34.0°F1.1°C 29.7°F-1.3°C 84% Calm Calm -- 29.70 in1005.8 mb - 0.00 in0.0 mm 0.00 in0.0 mm
04:20 AM 33.9°F1.1°C 29.9°F-1.2°C 85% Calm Calm -- 29.70 in1005.8 mb - 0.00 in0.0 mm 0.00 in0.0 mm
04:30 AM 34.1°F1.2°C 30.4°F-0.9°C 86% 1.2 mph ESE1.9 kmh ESE 1.2 mph1.9 kmh 29.70 in1005.8 mb - 0.00 in0.0 mm 0.00 in0.0 mm
04:40 AM 34.6°F1.4°C 30.6°F-0.8°C 85% Calm Calm -- 29.70 in1005.8 mb - 0.00 in0.0 mm 0.00 in0.0 mm
04:50 AM 35.0°F1.7°C 30.7°F-0.7°C 84% Calm Calm -- 29.70 in1005.8 mb - 0.00 in0.0 mm 0.00 in0.0 mm
05:00 AM 35.5°F1.9°C 30.9°F-0.6°C 83% Calm Calm -- 29.68 in1005.1 mb - 0.00 in0.0 mm 0.00 in0.0 mm
05:10 AM 36.3°F2.4°C 30.4°F-0.9°C 79% 1.2 mph N1.9 kmh N 4.6 mph7.4 kmh 29.68 in1005.1 mb - 0.00 in0.0 mm 0.00 in0.0 mm
05:20 AM 42.4°F5.8°C 28.6°F-1.9°C 58% 6.9 mph NNW11.1 kmh NNW 11.5 mph18.5 kmh 29.68 in1005.1 mb - 0.00 in0.0 mm 0.00 in0.0 mm
05:30 AM 47.2°F8.4°C 26.9°F-2.8°C 45% 5.8 mph NNW9.3 kmh NNW 6.9 mph11.1 kmh 29.68 in1005.1 mb - 0.00 in0.0 mm 0.00 in0.0 mm
05:40 AM 47.7°F8.7°C 27.4°F-2.6°C 45% 4.6 mph NW7.4 kmh NW 5.8 mph9.3 kmh 29.67 in1004.7 mb - 0.00 in0.0 mm 0.00 in0.0 mm
05:50 AM 48.0°F8.9°C 28.7°F-1.8°C 47% 5.8 mph NW9.3 kmh NW 11.5 mph18.5 kmh 29.66 in1004.4 mb - 0.00 in0.0 mm 0.00 in0.0 mm
06:00 AM 48.3°F9.1°C 29.0°F-1.7°C 47% 6.9 mph NW11.1 kmh NW 10.4 mph16.7 kmh 29.64 in1003.7 mb - 0.00 in0.0 mm 0.00 in0.0 mm
06:10 AM 47.6°F8.7°C 30.3°F-0.9°C 51% 6.9 mph NW11.1 kmh NW 11.5 mph18.5 kmh 29.63 in1003.4 mb - 0.00 in0.0 mm 0.00 in0.0 mm
06:20 AM 46.9°F8.3°C 31.1°F-0.5°C 54% 3.5 mph WNW5.6 kmh WNW 4.6 mph7.4 kmh 29.62 in1003.0 mb - 0.00 in0.0 mm 0.00 in0.0 mm
06:30 AM 46.5°F8.1°C 32.1°F0.1°C 57% 4.6 mph NW7.4 kmh NW 8.1 mph13.0 kmh 29.61 in1002.7 mb - 0.01 in0.3 mm 0.01 in0.3 mm
06:40 AM 45.9°F7.7°C 33.2°F0.7°C 61% 2.3 mph NNW3.7 kmh NNW 3.5 mph5.6 kmh 29.61 in1002.7 mb - 0.00 in0.0 mm 0.01 in0.3 mm
06:50 AM 45.6°F7.6°C 34.5°F1.4°C 65% 1.2 mph N1.9 kmh N 3.5 mph5.6 kmh 29.62 in1003.0 mb - 0.00 in0.0 mm 0.01 in0.3 mm
07:00 AM 45.6°F7.6°C 35.3°F1.8°C 67% 3.5 mph N5.6 kmh N 4.6 mph7.4 kmh 29.63 in1003.4 mb - 0.00 in0.0 mm 0.01 in0.3 mm
07:10 AM 45.5°F7.5°C 35.9°F2.2°C 69% 5.8 mph N9.3 kmh N 10.4 mph16.7 kmh 29.62 in1003.0 mb - 0.00 in0.0 mm 0.01 in0.3 mm
07:20 AM 45.1°F7.3°C 35.9°F2.2°C 70% 6.9 mph NNW11.1 kmh NNW 11.5 mph18.5 kmh 29.62 in1003.0 mb - 0.00 in0.0 mm 0.01 in0.3 mm
07:30 AM 44.9°F7.2°C 35.7°F2.1°C 70% 6.9 mph NW11.1 kmh NW 10.4 mph16.7 kmh 29.61 in1002.7 mb - 0.00 in0.0 mm 0.01 in0.3 mm
07:40 AM 44.8°F7.1°C 35.6°F2.0°C 70% 6.9 mph NW11.1 kmh NW 8.1 mph13.0 kmh 29.59 in1002.0 mb - 0.00 in0.0 mm 0.01 in0.3 mm
07:50 AM 44.7°F7.1°C 35.9°F2.2°C 71% 6.9 mph NW11.1 kmh NW 9.2 mph14.8 kmh 29.58 in1001.7 mb - 0.00 in0.0 mm 0.01 in0.3 mm
08:00 AM 44.8°F7.1°C 36.6°F2.6°C 73% 4.6 mph NW7.4 kmh NW 15.0 mph24.1 kmh 29.58 in1001.7 mb - 0.00 in0.0 mm 0.01 in0.3 mm
08:10 AM 45.4°F7.4°C 37.6°F3.1°C 74% 5.8 mph NW9.3 kmh NW 10.4 mph16.7 kmh 29.58 in1001.7 mb - 0.00 in0.0 mm 0.01 in0.3 mm
08:20 AM 46.1°F7.8°C 38.6°F3.7°C 75% 11.5 mph NNW18.5 kmh NNW 19.6 mph31.5 kmh 29.57 in1001.4 mb - 0.00 in0.0 mm 0.01 in0.3 mm
08:30 AM 46.7°F8.2°C 39.2°F4.0°C 75% 9.2 mph NW14.8 kmh NW 19.6 mph31.5 kmh 29.57 in1001.4 mb - 0.00 in0.0 mm 0.01 in0.3 mm
08:40 AM 47.1°F8.4°C 39.9°F4.4°C 76% 12.7 mph N20.4 kmh N 18.4 mph29.6 kmh 29.57 in1001.4 mb - 0.00 in0.0 mm 0.01 in0.3 mm
08:50 AM 47.3°F8.5°C 40.5°F4.7°C 77% 10.4 mph NW16.7 kmh NW 12.7 mph20.4 kmh 29.57 in1001.4 mb - 0.00 in0.0 mm 0.01 in0.3 mm
09:00 AM 47.4°F8.6°C 40.9°F4.9°C 78% 8.1 mph NNW13.0 kmh NNW 11.5 mph18.5 kmh 29.56 in1001.0 mb - 0.00 in0.0 mm 0.01 in0.3 mm
09:10 AM 47.5°F8.6°C 41.0°F5.0°C 78% 5.8 mph NNW9.3 kmh NNW 12.7 mph20.4 kmh 29.56 in1001.0 mb - 0.00 in0.0 mm 0.01 in0.3 mm
09:20 AM 47.6°F8.7°C 41.1°F5.1°C 78% 8.1 mph NW13.0 kmh NW 11.5 mph18.5 kmh 29.56 in1001.0 mb - 0.00 in0.0 mm 0.01 in0.3 mm
09:30 AM 47.6°F8.7°C 41.4°F5.2°C 79% 9.2 mph NNW14.8 kmh NNW 11.5 mph18.5 kmh 29.57 in1001.4 mb - 0.00 in0.0 mm 0.01 in0.3 mm
09:40 AM 47.5°F8.6°C 41.3°F5.2°C 79% 11.5 mph N18.5 kmh N 16.1 mph25.9 kmh 29.56 in1001.0 mb - 0.00 in0.0 mm 0.01 in0.3 mm
09:50 AM 47.4°F8.6°C 41.2°F5.1°C 79% 9.2 mph NNW14.8 kmh NNW 11.5 mph18.5 kmh 29.55 in1000.7 mb - 0.00 in0.0 mm 0.01 in0.3 mm
10:00 AM 47.6°F8.7°C 41.7°F5.4°C 80% 5.8 mph NNW9.3 kmh NNW 9.2 mph14.8 kmh 29.55 in1000.7 mb - 0.00 in0.0 mm 0.01 in0.3 mm
10:10 AM 47.7°F8.7°C 41.8°F5.4°C 80% 9.2 mph NW14.8 kmh NW 13.8 mph22.2 kmh 29.55 in1000.7 mb - 0.00 in0.0 mm 0.01 in0.3 mm
10:20 AM 47.6°F8.7°C 41.7°F5.4°C 80% 9.2 mph NW14.8 kmh NW 18.4 mph29.6 kmh 29.55 in1000.7 mb - 0.00 in0.0 mm 0.01 in0.3 mm
10:30 AM 47.6°F8.7°C 42.1°F5.6°C 81% 4.6 mph N7.4 kmh N 5.8 mph9.3 kmh 29.54 in1000.3 mb - 0.00 in0.0 mm 0.01 in0.3 mm
10:40 AM 47.5°F8.6°C 42.0°F5.6°C 81% 4.6 mph NW7.4 kmh NW 5.8 mph9.3 kmh 29.53 in1000.0 mb - 0.00 in0.0 mm 0.01 in0.3 mm
10:50 AM 47.5°F8.6°C 42.3°F5.7°C 82% 3.5 mph N5.6 kmh N 8.1 mph13.0 kmh 29.53 in1000.0 mb - 0.00 in0.0 mm 0.01 in0.3 mm
11:00 AM 47.4°F8.6°C 42.5°F5.8°C 83% 5.8 mph NNW9.3 kmh NNW 9.2 mph14.8 kmh 29.52 in999.7 mb - 0.00 in0.0 mm 0.01 in0.3 mm
11:10 AM 47.4°F8.6°C 42.8°F6.0°C 84% 8.1 mph NNW13.0 kmh NNW 12.7 mph20.4 kmh 29.52 in999.7 mb - 0.00 in0.0 mm 0.01 in0.3 mm
11:20 AM 47.3°F8.5°C 42.7°F5.9°C 84% 5.8 mph NW9.3 kmh NW 9.2 mph14.8 kmh 29.51 in999.3 mb - 0.00 in0.0 mm 0.01 in0.3 mm
11:30 AM 47.3°F8.5°C 43.0°F6.1°C 85% 4.6 mph N7.4 kmh N 6.9 mph11.1 kmh 29.50 in999.0 mb - 0.00 in0.0 mm 0.01 in0.3 mm
11:40 AM 47.3°F8.5°C 43.0°F6.1°C 85% 4.6 mph NW7.4 kmh NW 11.5 mph18.5 kmh 29.50 in999.0 mb - 0.00 in0.0 mm 0.01 in0.3 mm
11:50 AM 47.4°F8.6°C 42.8°F6.0°C 84% 5.8 mph NW9.3 kmh NW 11.5 mph18.5 kmh 29.50 in999.0 mb - 0.00 in0.0 mm 0.01 in0.3 mm
12:00 PM 47.4°F8.6°C 43.1°F6.2°C 85% 5.8 mph NNW9.3 kmh NNW 11.5 mph18.5 kmh 29.49 in998.6 mb - 0.00 in0.0 mm 0.01 in0.3 mm
12:10 PM 47.4°F8.6°C 43.1°F6.2°C 85% 8.1 mph N13.0 kmh N 9.2 mph14.8 kmh 29.49 in998.6 mb - 0.00 in0.0 mm 0.01 in0.3 mm
12:20 PM 47.5°F8.6°C 43.2°F6.2°C 85% 6.9 mph NW11.1 kmh NW 10.4 mph16.7 kmh 29.48 in998.3 mb - 0.00 in0.0 mm 0.01 in0.3 mm
12:30 PM 47.7°F8.7°C 43.4°F6.3°C 85% 8.1 mph NW13.0 kmh NW 13.8 mph22.2 kmh 29.48 in998.3 mb - 0.00 in0.0 mm 0.01 in0.3 mm
12:40 PM 47.8°F8.8°C 43.5°F6.4°C 85% 8.1 mph NNW13.0 kmh NNW 9.2 mph14.8 kmh 29.47 in998.0 mb - 0.00 in0.0 mm 0.01 in0.3 mm
12:50 PM 47.8°F8.8°C 43.8°F6.6°C 86% 6.9 mph NNW11.1 kmh NNW 8.1 mph13.0 kmh 29.46 in997.6 mb - 0.00 in0.0 mm 0.01 in0.3 mm
01:00 PM 47.9°F8.8°C 43.9°F6.6°C 86% 6.9 mph NW11.1 kmh NW 6.9 mph11.1 kmh 29.46 in997.6 mb - 0.00 in0.0 mm 0.01 in0.3 mm
01:10 PM 48.0°F8.9°C 44.0°F6.7°C 86% 4.6 mph NW7.4 kmh NW 6.9 mph11.1 kmh 29.45 in997.3 mb - 0.00 in0.0 mm 0.01 in0.3 mm
01:20 PM 48.2°F9.0°C 43.9°F6.6°C 85% 5.8 mph NW9.3 kmh NW 9.2 mph14.8 kmh 29.44 in997.0 mb - 0.00 in0.0 mm 0.01 in0.3 mm
01:30 PM 48.3°F9.1°C 44.0°F6.7°C 85% 4.6 mph NW7.4 kmh NW 5.8 mph9.3 kmh 29.44 in997.0 mb - 0.00 in0.0 mm 0.01 in0.3 mm
01:40 PM 48.5°F9.2°C 44.2°F6.8°C 85% 5.8 mph NW9.3 kmh NW 6.9 mph11.1 kmh 29.43 in996.6 mb - 0.00 in0.0 mm 0.01 in0.3 mm
01:50 PM 48.6°F9.2°C 44.3°F6.8°C 85% 4.6 mph NW7.4 kmh NW 6.9 mph11.1 kmh 29.42 in996.3 mb - 0.00 in0.0 mm 0.01 in0.3 mm
02:00 PM 48.8°F9.3°C 44.5°F6.9°C 85% 4.6 mph NW7.4 kmh NW 4.6 mph7.4 kmh 29.41 in995.9 mb - 0.00 in0.0 mm 0.01 in0.3 mm
02:10 PM 48.9°F9.4°C 44.6°F7.0°C 85% 8.1 mph NW13.0 kmh NW 11.5 mph18.5 kmh 29.40 in995.6 mb - 0.00 in0.0 mm 0.01 in0.3 mm
02:20 PM 49.0°F9.4°C 44.7°F7.1°C 85% 4.6 mph WNW7.4 kmh WNW 6.9 mph11.1 kmh 29.40 in995.6 mb - 0.00 in0.0 mm 0.01 in0.3 mm
02:30 PM 49.2°F9.6°C 44.6°F7.0°C 84% 5.8 mph NW9.3 kmh NW 6.9 mph11.1 kmh 29.38 in994.9 mb - 0.00 in0.0 mm 0.01 in0.3 mm
02:40 PM 49.3°F9.6°C 44.7°F7.1°C 84% 5.8 mph WNW9.3 kmh WNW 8.1 mph13.0 kmh 29.37 in994.6 mb - 0.00 in0.0 mm 0.01 in0.3 mm
02:50 PM 49.3°F9.6°C 44.7°F7.1°C 84% 4.6 mph NW7.4 kmh NW 8.1 mph13.0 kmh 29.36 in994.2 mb - 0.00 in0.0 mm 0.01 in0.3 mm
03:00 PM 49.4°F9.7°C 44.7°F7.1°C 84% 5.8 mph NW9.3 kmh NW 11.5 mph18.5 kmh 29.36 in994.2 mb - 0.00 in0.0 mm 0.01 in0.3 mm
03:10 PM 49.4°F9.7°C 44.8°F7.1°C 84% 5.8 mph WNW9.3 kmh WNW 9.2 mph14.8 kmh 29.36 in994.2 mb - 0.00 in0.0 mm 0.01 in0.3 mm
03:20 PM 49.4°F9.7°C 44.8°F7.1°C 84% 4.6 mph WNW7.4 kmh WNW 4.6 mph7.4 kmh 29.35 in993.9 mb - 0.00 in0.0 mm 0.01 in0.3 mm
03:30 PM 49.4°F9.7°C 45.1°F7.3°C 85% 4.6 mph NW7.4 kmh NW 6.9 mph11.1 kmh 29.35 in993.9 mb - 0.00 in0.0 mm 0.01 in0.3 mm
03:40 PM 49.1°F9.5°C 45.1°F7.3°C 86% 4.6 mph NW7.4 kmh NW 4.6 mph7.4 kmh 29.35 in993.9 mb - 0.01 in0.3 mm 0.02 in0.5 mm
03:50 PM 48.6°F9.2°C 45.5°F7.5°C 89% 1.2 mph W1.9 kmh W 5.8 mph9.3 kmh 29.34 in993.6 mb - 0.01 in0.3 mm 0.03 in0.8 mm
04:00 PM 48.3°F9.1°C 45.5°F7.5°C 90% 2.3 mph WNW3.7 kmh WNW 3.5 mph5.6 kmh 29.33 in993.2 mb - 0.02 in0.5 mm 0.05 in1.3 mm
04:10 PM 48.1°F8.9°C 45.6°F7.6°C 91% 2.3 mph W3.7 kmh W 3.5 mph5.6 kmh 29.32 in992.9 mb - 0.02 in0.5 mm 0.07 in1.8 mm
04:20 PM 47.9°F8.8°C 45.7°F7.6°C 92% 1.2 mph WNW1.9 kmh WNW 3.5 mph5.6 kmh 29.31 in992.6 mb - 0.02 in0.5 mm 0.09 in2.3 mm
04:30 PM 47.8°F8.8°C 45.8°F7.7°C 93% Calm Calm 1.2 mph1.9 kmh 29.31 in992.6 mb - 0.01 in0.3 mm 0.10 in2.5 mm
04:40 PM 47.6°F8.7°C 45.7°F7.6°C 93% Calm Calm -- 29.31 in992.6 mb - 0.01 in0.3 mm 0.11 in2.8 mm
04:50 PM 47.6°F8.7°C 46.0°F7.8°C 94% Calm Calm -- 29.31 in992.6 mb - 0.02 in0.5 mm 0.12 in3.0 mm
05:00 PM 47.5°F8.6°C 45.9°F7.7°C 94% Calm Calm -- 29.30 in992.2 mb - 0.03 in0.8 mm 0.15 in3.8 mm
05:10 PM 47.4°F8.6°C 45.8°F7.7°C 94% Calm Calm -- 29.31 in992.6 mb - 0.03 in0.8 mm 0.18 in4.6 mm
05:20 PM 47.4°F8.6°C 45.8°F7.7°C 94% Calm Calm -- 29.30 in992.2 mb - 0.03 in0.8 mm 0.21 in5.3 mm
05:30 PM 47.3°F8.5°C 45.9°F7.7°C 95% Calm Calm -- 29.29 in991.9 mb - 0.03 in0.8 mm 0.23 in5.8 mm
05:40 PM 47.3°F8.5°C 45.9°F7.7°C 95% Calm Calm -- 29.28 in991.5 mb - 0.04 in1.0 mm 0.27 in6.9 mm
05:50 PM 47.3°F8.5°C 45.9°F7.7°C 95% 1.2 mph W1.9 kmh W 2.3 mph3.7 kmh 29.27 in991.2 mb - 0.01 in0.3 mm 0.28 in7.1 mm
06:00 PM 47.2°F8.4°C 45.8°F7.7°C 95% 1.2 mph SSW1.9 kmh SSW 2.3 mph3.7 kmh 29.26 in990.9 mb - 0.01 in0.3 mm 0.29 in7.4 mm
06:10 PM 47.1°F8.4°C 45.8°F7.7°C 95% 1.2 mph SSW1.9 kmh SSW 2.3 mph3.7 kmh 29.25 in990.5 mb - 0.00 in0.0 mm 0.29 in7.4 mm
06:20 PM 47.2°F8.4°C 45.8°F7.7°C 95% 2.3 mph S3.7 kmh S 3.5 mph5.6 kmh 29.25 in990.5 mb - 0.00 in0.0 mm 0.29 in7.4 mm
06:30 PM 47.1°F8.4°C 45.7°F7.6°C 95% 1.2 mph S1.9 kmh S 2.3 mph3.7 kmh 29.24 in990.2 mb - 0.02 in0.5 mm 0.31 in7.9 mm
06:40 PM 47.0°F8.3°C 45.6°F7.6°C 95% 1.2 mph S1.9 kmh S 3.5 mph5.6 kmh 29.23 in989.8 mb - 0.02 in0.5 mm 0.33 in8.4 mm
06:50 PM 47.0°F8.3°C 45.9°F7.7°C 96% 2.3 mph S3.7 kmh S 3.5 mph5.6 kmh 29.23 in989.8 mb - 0.01 in0.3 mm 0.33 in8.4 mm
07:00 PM 47.0°F8.3°C 45.9°F7.7°C 96% 2.3 mph SW3.7 kmh SW 3.5 mph5.6 kmh 29.21 in989.2 mb - 0.01 in0.3 mm 0.34 in8.6 mm
07:10 PM 47.1°F8.4°C 46.0°F7.8°C 96% 1.2 mph SW1.9 kmh SW 3.5 mph5.6 kmh 29.20 in988.8 mb - 0.00 in0.0 mm 0.34 in8.6 mm
07:20 PM 47.1°F8.4°C 46.0°F7.8°C 96% 1.2 mph S1.9 kmh S 3.5 mph5.6 kmh 29.19 in988.5 mb - 0.01 in0.3 mm 0.35 in8.9 mm
07:30 PM 47.2°F8.4°C 46.1°F7.8°C 96% 1.2 mph S1.9 kmh S 2.3 mph3.7 kmh 29.18 in988.1 mb - 0.00 in0.0 mm 0.35 in8.9 mm
07:40 PM 47.2°F8.4°C 46.1°F7.8°C 96% 2.3 mph SSW3.7 kmh SSW 3.5 mph5.6 kmh 29.18 in988.1 mb - 0.00 in0.0 mm 0.35 in8.9 mm
07:50 PM 47.1°F8.4°C 46.0°F7.8°C 96% 1.2 mph SSW1.9 kmh SSW 3.5 mph5.6 kmh 29.18 in988.1 mb - 0.00 in0.0 mm 0.35 in8.9 mm
08:00 PM 47.2°F8.4°C 46.1°F7.8°C 96% 2.3 mph SSW3.7 kmh SSW 3.5 mph5.6 kmh 29.17 in987.8 mb - 0.00 in0.0 mm 0.35 in8.9 mm
08:10 PM 47.1°F8.4°C 46.1°F7.8°C 96% 2.3 mph SSW3.7 kmh SSW 3.5 mph5.6 kmh 29.16 in987.5 mb - 0.00 in0.0 mm 0.35 in8.9 mm
08:20 PM 47.2°F8.4°C 46.1°F7.8°C 96% 2.3 mph SW3.7 kmh SW 3.5 mph5.6 kmh 29.15 in987.1 mb - 0.00 in0.0 mm 0.35 in8.9 mm
08:30 PM 47.3°F8.5°C 46.2°F7.9°C 96% 2.3 mph S3.7 kmh S 2.3 mph3.7 kmh 29.14 in986.8 mb - 0.00 in0.0 mm 0.35 in8.9 mm
08:40 PM 47.3°F8.5°C 46.2°F7.9°C 96% 1.2 mph S1.9 kmh S 3.5 mph5.6 kmh 29.13 in986.5 mb - 0.00 in0.0 mm 0.35 in8.9 mm
08:50 PM 47.4°F8.6°C 46.3°F7.9°C 96% 2.3 mph S3.7 kmh S 3.5 mph5.6 kmh 29.12 in986.1 mb - 0.00 in0.0 mm 0.35 in8.9 mm
09:00 PM 47.4°F8.6°C 46.3°F7.9°C 96% 1.2 mph S1.9 kmh S 2.3 mph3.7 kmh 29.12 in986.1 mb - 0.01 in0.3 mm 0.36 in9.1 mm
09:10 PM 47.5°F8.6°C 46.4°F8.0°C 96% Calm Calm 1.2 mph1.9 kmh 29.12 in986.1 mb - 0.00 in0.0 mm 0.36 in9.1 mm
09:20 PM 47.4°F8.6°C 46.3°F7.9°C 96% 1.2 mph S1.9 kmh S 2.3 mph3.7 kmh 29.11 in985.8 mb - 0.00 in0.0 mm 0.36 in9.1 mm
09:30 PM 47.5°F8.6°C 46.4°F8.0°C 96% 1.2 mph S1.9 kmh S 2.3 mph3.7 kmh 29.11 in985.8 mb - 0.00 in0.0 mm 0.36 in9.1 mm
09:40 PM 47.5°F8.6°C 46.4°F8.0°C 96% 1.2 mph S1.9 kmh S 2.3 mph3.7 kmh 29.10 in985.4 mb - 0.00 in0.0 mm 0.36 in9.1 mm
09:50 PM 47.6°F8.7°C 46.8°F8.2°C 97% 1.2 mph SW1.9 kmh SW 1.2 mph1.9 kmh 29.09 in985.1 mb - 0.00 in0.0 mm 0.36 in9.1 mm
10:00 PM 47.6°F8.7°C 46.8°F8.2°C 97% Calm Calm -- 29.08 in984.8 mb - 0.00 in0.0 mm 0.36 in9.1 mm
10:10 PM 47.6°F8.7°C 46.8°F8.2°C 97% Calm Calm -- 29.08 in984.8 mb - 0.01 in0.3 mm 0.37 in9.4 mm
10:20 PM 47.6°F8.7°C 46.8°F8.2°C 97% Calm Calm -- 29.07 in984.4 mb - 0.01 in0.3 mm 0.38 in9.7 mm
10:30 PM 47.6°F8.7°C 46.8°F8.2°C 97% Calm Calm -- 29.07 in984.4 mb - 0.00 in0.0 mm 0.38 in9.7 mm
10:40 PM 47.6°F8.7°C 46.8°F8.2°C 97% Calm Calm -- 29.07 in984.4 mb - 0.00 in0.0 mm 0.38 in9.7 mm
10:50 PM 47.6°F8.7°C 46.8°F8.2°C 97% Calm Calm -- 29.07 in984.4 mb - 0.00 in0.0 mm 0.38 in9.7 mm
11:00 PM 47.5°F8.6°C 46.7°F8.2°C 97% Calm Calm -- 29.06 in984.1 mb - 0.01 in0.3 mm 0.39 in9.9 mm
11:10 PM 47.5°F8.6°C 46.7°F8.2°C 97% Calm Calm -- 29.05 in983.7 mb - 0.01 in0.3 mm 0.40 in10.2 mm
11:20 PM 47.5°F8.6°C 46.7°F8.2°C 97% Calm Calm -- 29.05 in983.7 mb - 0.01 in0.3 mm 0.41 in10.4 mm
11:30 PM 47.5°F8.6°C 46.7°F8.2°C 97% Calm Calm -- 29.04 in983.4 mb - 0.01 in0.3 mm 0.42 in10.7 mm
11:40 PM 47.6°F8.7°C 46.8°F8.2°C 97% Calm Calm -- 29.05 in983.7 mb - 0.01 in0.3 mm 0.43 in10.9 mm
11:50 PM 47.6°F8.7°C 46.8°F8.2°C 97% Calm Calm -- 29.05 in983.7 mb - 0.01 in0.3 mm 0.44 in11.2 mm